sensor_id;sensor_type;location;lat;lon;timestamp;P1;durP1;ratioP1;P2;durP2;ratioP2
24897;SDS011;12957;49.434;8.684;2022-09-09T00:00:47;3.42;;;1.38;;
24897;SDS011;12957;49.434;8.684;2022-09-09T00:03:22;2.30;;;1.30;;
24897;SDS011;12957;49.434;8.684;2022-09-09T00:05:57;3.72;;;0.98;;
24897;SDS011;12957;49.434;8.684;2022-09-09T00:08:31;2.53;;;1.20;;
24897;SDS011;12957;49.434;8.684;2022-09-09T00:11:26;3.92;;;1.35;;
24897;SDS011;12957;49.434;8.684;2022-09-09T00:13:57;3.80;;;1.25;;
24897;SDS011;12957;49.434;8.684;2022-09-09T00:16:24;2.33;;;1.17;;
24897;SDS011;12957;49.434;8.684;2022-09-09T00:21:38;4.43;;;1.40;;
24897;SDS011;12957;49.434;8.684;2022-09-09T00:24:26;3.92;;;1.50;;
24897;SDS011;12957;49.434;8.684;2022-09-09T00:26:55;4.55;;;1.48;;
24897;SDS011;12957;49.434;8.684;2022-09-09T00:32:13;1.65;;;1.25;;
24897;SDS011;12957;49.434;8.684;2022-09-09T00:34:47;4.65;;;1.20;;
24897;SDS011;12957;49.434;8.684;2022-09-09T00:37:15;3.20;;;0.93;;
24897;SDS011;12957;49.434;8.684;2022-09-09T00:39:42;5.68;;;1.67;;
24897;SDS011;12957;49.434;8.684;2022-09-09T00:42:14;4.13;;;1.25;;
24897;SDS011;12957;49.434;8.684;2022-09-09T00:44:51;3.15;;;1.10;;
24897;SDS011;12957;49.434;8.684;2022-09-09T00:47:34;3.72;;;1.55;;
24897;SDS011;12957;49.434;8.684;2022-09-09T00:53:00;5.00;;;1.50;;
24897;SDS011;12957;49.434;8.684;2022-09-09T00:58:02;5.05;;;1.30;;
24897;SDS011;12957;49.434;8.684;2022-09-09T01:00:31;3.25;;;1.13;;
24897;SDS011;12957;49.434;8.684;2022-09-09T01:28:07;7.07;;;1.40;;
24897;SDS011;12957;49.434;8.684;2022-09-09T01:30:35;5.93;;;1.27;;
24897;SDS011;12957;49.434;8.684;2022-09-09T01:33:03;4.82;;;1.85;;
24897;SDS011;12957;49.434;8.684;2022-09-09T01:35:49;4.93;;;1.52;;
24897;SDS011;12957;49.434;8.684;2022-09-09T01:38:16;2.78;;;1.10;;
24897;SDS011;12957;49.434;8.684;2022-09-09T01:40:42;1.35;;;1.23;;
24897;SDS011;12957;49.434;8.684;2022-09-09T01:43:08;6.72;;;1.98;;
24897;SDS011;12957;49.434;8.684;2022-09-09T01:45:33;5.38;;;1.52;;
24897;SDS011;12957;49.434;8.684;2022-09-09T01:47:59;3.05;;;1.50;;
24897;SDS011;12957;49.434;8.684;2022-09-09T01:50:25;3.47;;;1.23;;
24897;SDS011;12957;49.434;8.684;2022-09-09T01:52:52;2.80;;;1.40;;
24897;SDS011;12957;49.434;8.684;2022-09-09T01:55:21;2.20;;;1.40;;
24897;SDS011;12957;49.434;8.684;2022-09-09T02:00:45;2.88;;;1.40;;
24897;SDS011;12957;49.434;8.684;2022-09-09T02:03:28;3.28;;;1.50;;
24897;SDS011;12957;49.434;8.684;2022-09-09T02:09:07;4.97;;;1.63;;
24897;SDS011;12957;49.434;8.684;2022-09-09T02:11:35;3.95;;;1.90;;
24897;SDS011;12957;49.434;8.684;2022-09-09T02:14:16;9.07;;;1.73;;
24897;SDS011;12957;49.434;8.684;2022-09-09T02:16:44;3.13;;;1.52;;
24897;SDS011;12957;49.434;8.684;2022-09-09T02:19:47;6.70;;;1.30;;
24897;SDS011;12957;49.434;8.684;2022-09-09T02:22:07;2.33;;;1.48;;
24897;SDS011;12957;49.434;8.684;2022-09-09T02:24:35;2.22;;;1.40;;
24897;SDS011;12957;49.434;8.684;2022-09-09T02:27:03;2.13;;;1.60;;
24897;SDS011;12957;49.434;8.684;2022-09-09T02:29:33;2.55;;;1.40;;
24897;SDS011;12957;49.434;8.684;2022-09-09T02:32:01;3.95;;;1.40;;
24897;SDS011;12957;49.434;8.684;2022-09-09T02:34:29;4.32;;;1.60;;
24897;SDS011;12957;49.434;8.684;2022-09-09T02:36:56;8.80;;;1.48;;
24897;SDS011;12957;49.434;8.684;2022-09-09T02:39:22;4.63;;;1.73;;
24897;SDS011;12957;49.434;8.684;2022-09-09T02:41:48;3.08;;;1.40;;
24897;SDS011;12957;49.434;8.684;2022-09-09T02:44:15;6.20;;;1.42;;
24897;SDS011;12957;49.434;8.684;2022-09-09T02:49:46;5.55;;;1.58;;
24897;SDS011;12957;49.434;8.684;2022-09-09T02:58:05;5.07;;;1.63;;
24897;SDS011;12957;49.434;8.684;2022-09-09T03:00:33;4.65;;;1.70;;
24897;SDS011;12957;49.434;8.684;2022-09-09T03:03:01;2.38;;;1.40;;
24897;SDS011;12957;49.434;8.684;2022-09-09T03:05:28;4.57;;;1.38;;
24897;SDS011;12957;49.434;8.684;2022-09-09T03:07:53;3.40;;;1.50;;
24897;SDS011;12957;49.434;8.684;2022-09-09T03:10:18;4.60;;;1.75;;
24897;SDS011;12957;49.434;8.684;2022-09-09T03:12:44;7.82;;;1.60;;
24897;SDS011;12957;49.434;8.684;2022-09-09T03:15:09;5.00;;;1.33;;
24897;SDS011;12957;49.434;8.684;2022-09-09T03:17:35;5.13;;;1.48;;
24897;SDS011;12957;49.434;8.684;2022-09-09T03:20:04;3.60;;;1.60;;
24897;SDS011;12957;49.434;8.684;2022-09-09T03:22:30;3.90;;;1.25;;
24897;SDS011;12957;49.434;8.684;2022-09-09T03:24:55;1.58;;;1.30;;
24897;SDS011;12957;49.434;8.684;2022-09-09T03:27:21;5.30;;;1.50;;
24897;SDS011;12957;49.434;8.684;2022-09-09T03:29:46;2.22;;;1.23;;
24897;SDS011;12957;49.434;8.684;2022-09-09T03:32:12;2.22;;;1.45;;
24897;SDS011;12957;49.434;8.684;2022-09-09T03:34:38;5.32;;;1.33;;
24897;SDS011;12957;49.434;8.684;2022-09-09T03:37:05;3.45;;;1.20;;
24897;SDS011;12957;49.434;8.684;2022-09-09T03:39:31;3.15;;;1.30;;
24897;SDS011;12957;49.434;8.684;2022-09-09T03:41:56;6.97;;;1.52;;
24897;SDS011;12957;49.434;8.684;2022-09-09T03:44:22;2.75;;;1.52;;
24897;SDS011;12957;49.434;8.684;2022-09-09T03:46:47;4.85;;;1.23;;
24897;SDS011;12957;49.434;8.684;2022-09-09T03:49:12;4.07;;;1.42;;
24897;SDS011;12957;49.434;8.684;2022-09-09T03:51:38;2.45;;;0.90;;
24897;SDS011;12957;49.434;8.684;2022-09-09T03:54:04;7.32;;;1.20;;
24897;SDS011;12957;49.434;8.684;2022-09-09T03:56:33;2.10;;;1.10;;
24897;SDS011;12957;49.434;8.684;2022-09-09T03:58:58;4.13;;;1.10;;
24897;SDS011;12957;49.434;8.684;2022-09-09T04:01:24;3.40;;;1.05;;
24897;SDS011;12957;49.434;8.684;2022-09-09T04:03:49;5.55;;;1.10;;
24897;SDS011;12957;49.434;8.684;2022-09-09T04:06:15;5.25;;;1.25;;
24897;SDS011;12957;49.434;8.684;2022-09-09T04:08:42;2.10;;;1.05;;
24897;SDS011;12957;49.434;8.684;2022-09-09T04:11:07;2.08;;;1.08;;
24897;SDS011;12957;49.434;8.684;2022-09-09T04:13:33;4.57;;;1.08;;
24897;SDS011;12957;49.434;8.684;2022-09-09T04:15:59;3.63;;;1.00;;
24897;SDS011;12957;49.434;8.684;2022-09-09T04:18:26;2.65;;;0.95;;
24897;SDS011;12957;49.434;8.684;2022-09-09T04:20:53;5.32;;;1.02;;
24897;SDS011;12957;49.434;8.684;2022-09-09T04:23:19;3.78;;;1.20;;
24897;SDS011;12957;49.434;8.684;2022-09-09T04:25:49;1.60;;;0.82;;
24897;SDS011;12957;49.434;8.684;2022-09-09T04:28:16;3.10;;;0.85;;
24897;SDS011;12957;49.434;8.684;2022-09-09T04:30:43;2.25;;;1.00;;
24897;SDS011;12957;49.434;8.684;2022-09-09T04:33:09;2.42;;;0.90;;
24897;SDS011;12957;49.434;8.684;2022-09-09T04:35:35;2.00;;;0.93;;
24897;SDS011;12957;49.434;8.684;2022-09-09T04:38:01;1.90;;;0.85;;
24897;SDS011;12957;49.434;8.684;2022-09-09T04:40:27;1.10;;;1.00;;
24897;SDS011;12957;49.434;8.684;2022-09-09T04:42:54;1.55;;;0.88;;
24897;SDS011;12957;49.434;8.684;2022-09-09T04:45:20;0.77;;;0.77;;
24897;SDS011;12957;49.434;8.684;2022-09-09T04:47:45;2.45;;;0.82;;
24897;SDS011;12957;49.434;8.684;2022-09-09T04:50:11;1.65;;;0.77;;
24897;SDS011;12957;49.434;8.684;2022-09-09T04:52:37;3.28;;;1.00;;
24897;SDS011;12957;49.434;8.684;2022-09-09T04:55:02;7.18;;;1.20;;
24897;SDS011;12957;49.434;8.684;2022-09-09T04:57:28;4.50;;;0.90;;
24897;SDS011;12957;49.434;8.684;2022-09-09T04:59:56;7.70;;;1.50;;
24897;SDS011;12957;49.434;8.684;2022-09-09T05:02:22;2.28;;;1.10;;
24897;SDS011;12957;49.434;8.684;2022-09-09T05:04:47;1.35;;;0.90;;
24897;SDS011;12957;49.434;8.684;2022-09-09T05:07:14;4.85;;;1.17;;
24897;SDS011;12957;49.434;8.684;2022-09-09T05:09:40;4.82;;;1.20;;
24897;SDS011;12957;49.434;8.684;2022-09-09T05:12:05;2.22;;;1.05;;
24897;SDS011;12957;49.434;8.684;2022-09-09T05:14:31;2.58;;;1.00;;
24897;SDS011;12957;49.434;8.684;2022-09-09T05:16:56;3.55;;;1.08;;
24897;SDS011;12957;49.434;8.684;2022-09-09T05:19:23;3.92;;;1.00;;
24897;SDS011;12957;49.434;8.684;2022-09-09T05:21:48;1.42;;;0.90;;
24897;SDS011;12957;49.434;8.684;2022-09-09T05:24:14;3.17;;;1.00;;
24897;SDS011;12957;49.434;8.684;2022-09-09T05:26:40;1.98;;;0.80;;
24897;SDS011;12957;49.434;8.684;2022-09-09T05:29:06;6.15;;;1.08;;
24897;SDS011;12957;49.434;8.684;2022-09-09T05:31:33;2.95;;;1.08;;
24897;SDS011;12957;49.434;8.684;2022-09-09T05:33:58;1.33;;;0.82;;
24897;SDS011;12957;49.434;8.684;2022-09-09T05:36:24;2.25;;;1.05;;
24897;SDS011;12957;49.434;8.684;2022-09-09T05:38:50;1.58;;;1.00;;
24897;SDS011;12957;49.434;8.684;2022-09-09T05:41:16;3.15;;;1.02;;
24897;SDS011;12957;49.434;8.684;2022-09-09T05:43:42;2.15;;;1.27;;
24897;SDS011;12957;49.434;8.684;2022-09-09T05:46:16;3.50;;;1.00;;
24897;SDS011;12957;49.434;8.684;2022-09-09T05:48:45;3.90;;;1.17;;
24897;SDS011;12957;49.434;8.684;2022-09-09T05:51:12;2.28;;;0.80;;
24897;SDS011;12957;49.434;8.684;2022-09-09T05:53:42;3.08;;;1.30;;
24897;SDS011;12957;49.434;8.684;2022-09-09T05:56:09;2.10;;;1.08;;
24897;SDS011;12957;49.434;8.684;2022-09-09T05:58:36;2.72;;;0.98;;
24897;SDS011;12957;49.434;8.684;2022-09-09T06:01:09;1.92;;;0.95;;
24897;SDS011;12957;49.434;8.684;2022-09-09T06:03:36;2.40;;;0.93;;
24897;SDS011;12957;49.434;8.684;2022-09-09T06:06:03;4.30;;;1.30;;
24897;SDS011;12957;49.434;8.684;2022-09-09T06:08:30;5.38;;;1.10;;
24897;SDS011;12957;49.434;8.684;2022-09-09T06:11:03;3.08;;;1.30;;
24897;SDS011;12957;49.434;8.684;2022-09-09T06:13:36;1.13;;;1.02;;
24897;SDS011;12957;49.434;8.684;2022-09-09T06:16:04;4.07;;;1.00;;
24897;SDS011;12957;49.434;8.684;2022-09-09T06:18:30;1.25;;;1.05;;
24897;SDS011;12957;49.434;8.684;2022-09-09T06:20:56;1.92;;;1.10;;
24897;SDS011;12957;49.434;8.684;2022-09-09T06:23:22;6.15;;;1.55;;
24897;SDS011;12957;49.434;8.684;2022-09-09T06:25:48;3.03;;;0.95;;
24897;SDS011;12957;49.434;8.684;2022-09-09T06:28:14;4.53;;;1.30;;
24897;SDS011;12957;49.434;8.684;2022-09-09T06:30:42;4.03;;;1.58;;
24897;SDS011;12957;49.434;8.684;2022-09-09T06:33:08;4.68;;;1.35;;
24897;SDS011;12957;49.434;8.684;2022-09-09T06:35:34;2.75;;;1.13;;
24897;SDS011;12957;49.434;8.684;2022-09-09T06:38:00;4.15;;;1.35;;
24897;SDS011;12957;49.434;8.684;2022-09-09T06:40:25;4.80;;;1.20;;
24897;SDS011;12957;49.434;8.684;2022-09-09T06:42:51;4.00;;;1.58;;
24897;SDS011;12957;49.434;8.684;2022-09-09T06:45:17;2.78;;;1.10;;
24897;SDS011;12957;49.434;8.684;2022-09-09T06:47:43;1.92;;;0.98;;
24897;SDS011;12957;49.434;8.684;2022-09-09T06:50:08;5.25;;;1.10;;
24897;SDS011;12957;49.434;8.684;2022-09-09T06:52:35;7.15;;;1.63;;
24897;SDS011;12957;49.434;8.684;2022-09-09T06:55:00;3.15;;;1.00;;
24897;SDS011;12957;49.434;8.684;2022-09-09T06:57:26;1.77;;;1.08;;
24897;SDS011;12957;49.434;8.684;2022-09-09T06:59:51;1.25;;;1.02;;
24897;SDS011;12957;49.434;8.684;2022-09-09T07:02:17;4.38;;;1.02;;
24897;SDS011;12957;49.434;8.684;2022-09-09T07:04:43;2.33;;;1.45;;
24897;SDS011;12957;49.434;8.684;2022-09-09T07:07:09;3.63;;;1.40;;
24897;SDS011;12957;49.434;8.684;2022-09-09T07:09:37;3.40;;;1.00;;
24897;SDS011;12957;49.434;8.684;2022-09-09T07:12:02;2.08;;;0.80;;
24897;SDS011;12957;49.434;8.684;2022-09-09T07:14:30;5.15;;;1.30;;
24897;SDS011;12957;49.434;8.684;2022-09-09T07:16:56;2.35;;;0.98;;
24897;SDS011;12957;49.434;8.684;2022-09-09T07:19:22;5.47;;;1.38;;
24897;SDS011;12957;49.434;8.684;2022-09-09T07:21:47;3.53;;;1.02;;
24897;SDS011;12957;49.434;8.684;2022-09-09T07:24:13;6.15;;;1.23;;
24897;SDS011;12957;49.434;8.684;2022-09-09T07:26:39;2.28;;;1.08;;
24897;SDS011;12957;49.434;8.684;2022-09-09T07:29:05;3.17;;;1.00;;
24897;SDS011;12957;49.434;8.684;2022-09-09T07:31:31;2.90;;;1.13;;
24897;SDS011;12957;49.434;8.684;2022-09-09T07:33:58;3.72;;;1.20;;
24897;SDS011;12957;49.434;8.684;2022-09-09T07:36:28;5.38;;;1.48;;
24897;SDS011;12957;49.434;8.684;2022-09-09T07:38:58;3.72;;;1.20;;
24897;SDS011;12957;49.434;8.684;2022-09-09T07:41:27;3.17;;;1.10;;
24897;SDS011;12957;49.434;8.684;2022-09-09T07:43:55;3.15;;;1.35;;
24897;SDS011;12957;49.434;8.684;2022-09-09T07:46:21;5.90;;;1.50;;
24897;SDS011;12957;49.434;8.684;2022-09-09T07:48:49;5.90;;;1.50;;
24897;SDS011;12957;49.434;8.684;2022-09-09T07:51:19;4.95;;;1.40;;
24897;SDS011;12957;49.434;8.684;2022-09-09T07:53:48;5.45;;;1.30;;
24897;SDS011;12957;49.434;8.684;2022-09-09T07:56:14;7.45;;;1.40;;
24897;SDS011;12957;49.434;8.684;2022-09-09T07:58:48;3.15;;;1.20;;
24897;SDS011;12957;49.434;8.684;2022-09-09T08:01:18;10.45;;;1.77;;
24897;SDS011;12957;49.434;8.684;2022-09-09T08:03:46;6.32;;;1.52;;
24897;SDS011;12957;49.434;8.684;2022-09-09T08:06:12;6.47;;;1.20;;
24897;SDS011;12957;49.434;8.684;2022-09-09T08:08:38;4.97;;;1.50;;
24897;SDS011;12957;49.434;8.684;2022-09-09T08:11:11;6.15;;;1.73;;
24897;SDS011;12957;49.434;8.684;2022-09-09T08:13:37;4.20;;;1.60;;
24897;SDS011;12957;49.434;8.684;2022-09-09T08:16:26;5.95;;;1.38;;
24897;SDS011;12957;49.434;8.684;2022-09-09T08:18:51;8.07;;;1.45;;
24897;SDS011;12957;49.434;8.684;2022-09-09T08:21:18;7.97;;;1.45;;
24897;SDS011;12957;49.434;8.684;2022-09-09T08:23:45;3.22;;;1.40;;
24897;SDS011;12957;49.434;8.684;2022-09-09T08:26:16;5.35;;;1.48;;
24897;SDS011;12957;49.434;8.684;2022-09-09T08:28:53;6.63;;;1.67;;
24897;SDS011;12957;49.434;8.684;2022-09-09T08:31:21;4.60;;;1.58;;
24897;SDS011;12957;49.434;8.684;2022-09-09T08:33:53;3.42;;;1.30;;
24897;SDS011;12957;49.434;8.684;2022-09-09T08:36:20;6.95;;;1.50;;
24897;SDS011;12957;49.434;8.684;2022-09-09T08:38:50;3.45;;;1.40;;
24897;SDS011;12957;49.434;8.684;2022-09-09T08:47:14;5.60;;;1.60;;
24897;SDS011;12957;49.434;8.684;2022-09-09T08:52:18;7.40;;;1.90;;
24897;SDS011;12957;49.434;8.684;2022-09-09T08:54:46;7.18;;;1.52;;
24897;SDS011;12957;49.434;8.684;2022-09-09T08:57:18;2.92;;;1.42;;
24897;SDS011;12957;49.434;8.684;2022-09-09T08:59:47;5.20;;;1.70;;
24897;SDS011;12957;49.434;8.684;2022-09-09T09:02:18;4.72;;;1.58;;
24897;SDS011;12957;49.434;8.684;2022-09-09T09:04:55;4.72;;;1.40;;
24897;SDS011;12957;49.434;8.684;2022-09-09T09:10:05;6.60;;;1.50;;
24897;SDS011;12957;49.434;8.684;2022-09-09T09:12:47;4.93;;;1.48;;
24897;SDS011;12957;49.434;8.684;2022-09-09T09:15:16;2.28;;;1.17;;
24897;SDS011;12957;49.434;8.684;2022-09-09T09:17:44;3.35;;;1.45;;
24897;SDS011;12957;49.434;8.684;2022-09-09T09:20:16;4.50;;;1.50;;
24897;SDS011;12957;49.434;8.684;2022-09-09T09:22:47;5.05;;;1.33;;
24897;SDS011;12957;49.434;8.684;2022-09-09T09:25:19;2.90;;;1.13;;
24897;SDS011;12957;49.434;8.684;2022-09-09T09:27:52;9.15;;;1.83;;
24897;SDS011;12957;49.434;8.684;2022-09-09T09:30:26;4.32;;;1.30;;
24897;SDS011;12957;49.434;8.684;2022-09-09T09:32:56;6.03;;;1.73;;
24897;SDS011;12957;49.434;8.684;2022-09-09T09:35:24;9.20;;;1.63;;
24897;SDS011;12957;49.434;8.684;2022-09-09T09:37:50;6.13;;;1.30;;
24897;SDS011;12957;49.434;8.684;2022-09-09T09:40:16;4.57;;;1.52;;
24897;SDS011;12957;49.434;8.684;2022-09-09T09:42:51;3.25;;;1.50;;
24897;SDS011;12957;49.434;8.684;2022-09-09T09:45:35;5.50;;;1.33;;
24897;SDS011;12957;49.434;8.684;2022-09-09T09:48:09;2.75;;;1.10;;
24897;SDS011;12957;49.434;8.684;2022-09-09T09:50:35;4.10;;;1.15;;
24897;SDS011;12957;49.434;8.684;2022-09-09T09:53:02;6.28;;;1.35;;
24897;SDS011;12957;49.434;8.684;2022-09-09T09:55:30;2.05;;;1.23;;
24897;SDS011;12957;49.434;8.684;2022-09-09T09:58:15;2.88;;;1.38;;
24897;SDS011;12957;49.434;8.684;2022-09-09T10:00:47;3.20;;;1.15;;
24897;SDS011;12957;49.434;8.684;2022-09-09T10:03:19;4.43;;;1.40;;
24897;SDS011;12957;49.434;8.684;2022-09-09T10:05:49;5.40;;;1.42;;
24897;SDS011;12957;49.434;8.684;2022-09-09T10:08:15;5.03;;;1.42;;
24897;SDS011;12957;49.434;8.684;2022-09-09T10:14:04;4.20;;;1.48;;
24897;SDS011;12957;49.434;8.684;2022-09-09T10:19:33;7.32;;;1.58;;
24897;SDS011;12957;49.434;8.684;2022-09-09T10:22:15;6.53;;;1.50;;
24897;SDS011;12957;49.434;8.684;2022-09-09T10:24:51;7.75;;;1.50;;
24897;SDS011;12957;49.434;8.684;2022-09-09T10:30:10;4.53;;;1.50;;
24897;SDS011;12957;49.434;8.684;2022-09-09T10:32:38;9.48;;;1.67;;
24897;SDS011;12957;49.434;8.684;2022-09-09T10:35:31;5.00;;;1.33;;
24897;SDS011;12957;49.434;8.684;2022-09-09T10:49:28;5.28;;;1.10;;
24897;SDS011;12957;49.434;8.684;2022-09-09T10:55:18;3.13;;;1.17;;
24897;SDS011;12957;49.434;8.684;2022-09-09T10:57:48;4.72;;;1.10;;
24897;SDS011;12957;49.434;8.684;2022-09-09T11:00:21;2.47;;;1.00;;
24897;SDS011;12957;49.434;8.684;2022-09-09T11:02:49;4.15;;;1.50;;
24897;SDS011;12957;49.434;8.684;2022-09-09T11:05:19;3.65;;;1.15;;
24897;SDS011;12957;49.434;8.684;2022-09-09T11:08:31;4.28;;;1.10;;
24897;SDS011;12957;49.434;8.684;2022-09-09T11:10:41;3.72;;;1.00;;
24897;SDS011;12957;49.434;8.684;2022-09-09T11:18:40;6.40;;;1.13;;
24897;SDS011;12957;49.434;8.684;2022-09-09T11:21:09;3.67;;;1.20;;
24897;SDS011;12957;49.434;8.684;2022-09-09T11:23:44;2.28;;;1.10;;
24897;SDS011;12957;49.434;8.684;2022-09-09T11:26:18;4.97;;;1.27;;
24897;SDS011;12957;49.434;8.684;2022-09-09T11:40:23;4.68;;;1.23;;
24897;SDS011;12957;49.434;8.684;2022-09-09T11:43:00;10.07;;;1.65;;
24897;SDS011;12957;49.434;8.684;2022-09-09T11:46:04;2.53;;;1.20;;
24897;SDS011;12957;49.434;8.684;2022-09-09T11:54:46;5.95;;;1.58;;
24897;SDS011;12957;49.434;8.684;2022-09-09T11:56:53;5.05;;;1.25;;
24897;SDS011;12957;49.434;8.684;2022-09-09T11:59:19;3.42;;;1.23;;
24897;SDS011;12957;49.434;8.684;2022-09-09T12:02:02;4.38;;;1.25;;
24897;SDS011;12957;49.434;8.684;2022-09-09T12:14:59;2.67;;;1.20;;
24897;SDS011;12957;49.434;8.684;2022-09-09T12:17:26;4.63;;;1.40;;
24897;SDS011;12957;49.434;8.684;2022-09-09T12:20:31;2.95;;;1.00;;
24897;SDS011;12957;49.434;8.684;2022-09-09T12:31:14;4.47;;;1.58;;
24897;SDS011;12957;49.434;8.684;2022-09-09T12:33:44;3.83;;;1.10;;
24897;SDS011;12957;49.434;8.684;2022-09-09T12:36:20;4.25;;;1.35;;
24897;SDS011;12957;49.434;8.684;2022-09-09T12:38:47;2.80;;;1.20;;
24897;SDS011;12957;49.434;8.684;2022-09-09T12:41:18;3.47;;;1.10;;
24897;SDS011;12957;49.434;8.684;2022-09-09T12:43:51;3.17;;;1.15;;
24897;SDS011;12957;49.434;8.684;2022-09-09T12:46:21;7.43;;;1.20;;
24897;SDS011;12957;49.434;8.684;2022-09-09T12:48:51;2.47;;;0.90;;
24897;SDS011;12957;49.434;8.684;2022-09-09T12:51:26;3.00;;;1.10;;
24897;SDS011;12957;49.434;8.684;2022-09-09T12:53:53;2.60;;;0.93;;
24897;SDS011;12957;49.434;8.684;2022-09-09T12:56:20;2.35;;;1.17;;
24897;SDS011;12957;49.434;8.684;2022-09-09T12:58:48;3.33;;;1.20;;
24897;SDS011;12957;49.434;8.684;2022-09-09T13:01:23;4.68;;;1.20;;
24897;SDS011;12957;49.434;8.684;2022-09-09T13:03:50;5.53;;;1.30;;
24897;SDS011;12957;49.434;8.684;2022-09-09T13:06:23;6.85;;;1.20;;
24897;SDS011;12957;49.434;8.684;2022-09-09T13:08:50;3.15;;;1.10;;
24897;SDS011;12957;49.434;8.684;2022-09-09T13:11:17;5.07;;;0.98;;
24897;SDS011;12957;49.434;8.684;2022-09-09T13:13:55;2.90;;;1.10;;
24897;SDS011;12957;49.434;8.684;2022-09-09T13:18:56;1.83;;;1.00;;
24897;SDS011;12957;49.434;8.684;2022-09-09T13:21:33;3.70;;;1.10;;
24897;SDS011;12957;49.434;8.684;2022-09-09T13:23:59;2.35;;;1.10;;
24897;SDS011;12957;49.434;8.684;2022-09-09T13:26:28;2.67;;;1.00;;
24897;SDS011;12957;49.434;8.684;2022-09-09T13:28:55;2.85;;;1.10;;
24897;SDS011;12957;49.434;8.684;2022-09-09T13:31:32;2.28;;;0.95;;
24897;SDS011;12957;49.434;8.684;2022-09-09T13:33:58;5.38;;;1.00;;
24897;SDS011;12957;49.434;8.684;2022-09-09T13:36:31;2.20;;;0.90;;
24897;SDS011;12957;49.434;8.684;2022-09-09T13:38:59;4.63;;;0.80;;
24897;SDS011;12957;49.434;8.684;2022-09-09T13:41:32;1.77;;;0.40;;
24897;SDS011;12957;49.434;8.684;2022-09-09T13:43:59;0.90;;;0.43;;
24897;SDS011;12957;49.434;8.684;2022-09-09T13:49:02;1.75;;;0.70;;
24897;SDS011;12957;49.434;8.684;2022-09-09T13:51:49;0.98;;;0.93;;
24897;SDS011;12957;49.434;8.684;2022-09-09T13:54:16;2.25;;;0.50;;
24897;SDS011;12957;49.434;8.684;2022-09-09T13:56:43;5.63;;;0.98;;
24897;SDS011;12957;49.434;8.684;2022-09-09T13:59:13;2.17;;;0.68;;
24897;SDS011;12957;49.434;8.684;2022-09-09T14:01:40;0.68;;;0.55;;
24897;SDS011;12957;49.434;8.684;2022-09-09T14:04:06;1.73;;;0.55;;
24897;SDS011;12957;49.434;8.684;2022-09-09T14:06:32;2.63;;;0.57;;
24897;SDS011;12957;49.434;8.684;2022-09-09T14:08:58;2.70;;;0.65;;
24897;SDS011;12957;49.434;8.684;2022-09-09T14:11:23;1.70;;;0.63;;
24897;SDS011;12957;49.434;8.684;2022-09-09T14:13:49;5.78;;;0.70;;
24897;SDS011;12957;49.434;8.684;2022-09-09T14:16:17;3.00;;;0.70;;
24897;SDS011;12957;49.434;8.684;2022-09-09T14:18:43;1.20;;;0.50;;
24897;SDS011;12957;49.434;8.684;2022-09-09T14:21:10;1.65;;;0.68;;
24897;SDS011;12957;49.434;8.684;2022-09-09T14:23:36;1.08;;;0.88;;
24897;SDS011;12957;49.434;8.684;2022-09-09T14:26:03;1.73;;;0.77;;
24897;SDS011;12957;49.434;8.684;2022-09-09T14:28:29;2.22;;;0.82;;
24897;SDS011;12957;49.434;8.684;2022-09-09T14:30:54;1.70;;;0.80;;
24897;SDS011;12957;49.434;8.684;2022-09-09T14:33:20;6.47;;;0.85;;
24897;SDS011;12957;49.434;8.684;2022-09-09T14:35:46;2.03;;;0.82;;
24897;SDS011;12957;49.434;8.684;2022-09-09T14:38:11;1.83;;;0.80;;
24897;SDS011;12957;49.434;8.684;2022-09-09T14:40:37;1.73;;;0.70;;
24897;SDS011;12957;49.434;8.684;2022-09-09T14:43:03;3.58;;;1.00;;
24897;SDS011;12957;49.434;8.684;2022-09-09T14:45:29;4.25;;;0.85;;
24897;SDS011;12957;49.434;8.684;2022-09-09T14:47:55;15.25;;;1.67;;
24897;SDS011;12957;49.434;8.684;2022-09-09T14:50:21;1.55;;;1.00;;
24897;SDS011;12957;49.434;8.684;2022-09-09T14:52:47;2.22;;;0.88;;
24897;SDS011;12957;49.434;8.684;2022-09-09T14:55:12;5.03;;;1.00;;
24897;SDS011;12957;49.434;8.684;2022-09-09T14:57:38;8.20;;;1.23;;
24897;SDS011;12957;49.434;8.684;2022-09-09T15:00:05;4.43;;;1.10;;
24897;SDS011;12957;49.434;8.684;2022-09-09T15:02:32;6.78;;;0.98;;
24897;SDS011;12957;49.434;8.684;2022-09-09T15:04:57;3.60;;;0.90;;
24897;SDS011;12957;49.434;8.684;2022-09-09T15:07:23;3.40;;;0.80;;
24897;SDS011;12957;49.434;8.684;2022-09-09T15:09:49;5.65;;;1.00;;
24897;SDS011;12957;49.434;8.684;2022-09-09T15:12:15;7.15;;;1.20;;
24897;SDS011;12957;49.434;8.684;2022-09-09T15:14:43;5.07;;;1.05;;
24897;SDS011;12957;49.434;8.684;2022-09-09T15:17:09;5.25;;;1.27;;
24897;SDS011;12957;49.434;8.684;2022-09-09T15:19:34;3.25;;;0.90;;
24897;SDS011;12957;49.434;8.684;2022-09-09T15:22:01;3.10;;;0.85;;
24897;SDS011;12957;49.434;8.684;2022-09-09T15:24:27;1.65;;;0.82;;
24897;SDS011;12957;49.434;8.684;2022-09-09T15:26:52;4.93;;;0.90;;
24897;SDS011;12957;49.434;8.684;2022-09-09T15:29:19;3.00;;;1.05;;
24897;SDS011;12957;49.434;8.684;2022-09-09T15:31:44;4.55;;;1.20;;
24897;SDS011;12957;49.434;8.684;2022-09-09T15:34:10;3.40;;;1.00;;
24897;SDS011;12957;49.434;8.684;2022-09-09T15:36:37;1.40;;;0.90;;
24897;SDS011;12957;49.434;8.684;2022-09-09T15:39:07;1.80;;;1.33;;
24897;SDS011;12957;49.434;8.684;2022-09-09T15:41:37;0.90;;;0.60;;
24897;SDS011;12957;49.434;8.684;2022-09-09T15:44:04;3.95;;;0.60;;
24897;SDS011;12957;49.434;8.684;2022-09-09T15:46:34;3.60;;;0.70;;
24897;SDS011;12957;49.434;8.684;2022-09-09T15:51:31;1.02;;;0.60;;
24897;SDS011;12957;49.434;8.684;2022-09-09T15:53:57;1.00;;;0.55;;
24897;SDS011;12957;49.434;8.684;2022-09-09T15:56:27;3.13;;;1.02;;
24897;SDS011;12957;49.434;8.684;2022-09-09T15:58:54;6.13;;;1.02;;
24897;SDS011;12957;49.434;8.684;2022-09-09T16:01:20;2.05;;;0.60;;
24897;SDS011;12957;49.434;8.684;2022-09-09T16:03:48;3.67;;;0.80;;
24897;SDS011;12957;49.434;8.684;2022-09-09T16:06:16;0.65;;;0.60;;
24897;SDS011;12957;49.434;8.684;2022-09-09T16:08:44;12.70;;;0.88;;
24897;SDS011;12957;49.434;8.684;2022-09-09T16:13:37;3.17;;;0.68;;
24897;SDS011;12957;49.434;8.684;2022-09-09T16:16:04;1.10;;;0.75;;
24897;SDS011;12957;49.434;8.684;2022-09-09T16:18:39;3.40;;;0.90;;
24897;SDS011;12957;49.434;8.684;2022-09-09T16:21:05;4.00;;;0.70;;
24897;SDS011;12957;49.434;8.684;2022-09-09T16:23:33;3.17;;;1.00;;
24897;SDS011;12957;49.434;8.684;2022-09-09T16:26:02;0.50;;;0.50;;
24897;SDS011;12957;49.434;8.684;2022-09-09T16:28:28;1.35;;;0.77;;
24897;SDS011;12957;49.434;8.684;2022-09-09T16:30:54;3.85;;;0.85;;
24897;SDS011;12957;49.434;8.684;2022-09-09T16:33:19;1.10;;;0.70;;
24897;SDS011;12957;49.434;8.684;2022-09-09T16:35:45;1.38;;;0.50;;
24897;SDS011;12957;49.434;8.684;2022-09-09T16:38:11;0.52;;;0.50;;
24897;SDS011;12957;49.434;8.684;2022-09-09T16:40:39;1.85;;;0.70;;
24897;SDS011;12957;49.434;8.684;2022-09-09T16:43:07;0.82;;;0.50;;
24897;SDS011;12957;49.434;8.684;2022-09-09T16:45:41;1.45;;;0.43;;
24897;SDS011;12957;49.434;8.684;2022-09-09T16:48:10;1.75;;;0.68;;
24897;SDS011;12957;49.434;8.684;2022-09-09T16:50:36;0.38;;;0.38;;
24897;SDS011;12957;49.434;8.684;2022-09-09T16:53:01;1.05;;;0.70;;
24897;SDS011;12957;49.434;8.684;2022-09-09T16:55:31;5.57;;;0.90;;
24897;SDS011;12957;49.434;8.684;2022-09-09T16:57:57;0.95;;;0.70;;
24897;SDS011;12957;49.434;8.684;2022-09-09T17:00:22;2.78;;;0.80;;
24897;SDS011;12957;49.434;8.684;2022-09-09T17:02:48;2.58;;;0.90;;
24897;SDS011;12957;49.434;8.684;2022-09-09T17:05:13;3.05;;;0.88;;
24897;SDS011;12957;49.434;8.684;2022-09-09T17:07:39;1.35;;;0.80;;
24897;SDS011;12957;49.434;8.684;2022-09-09T17:10:05;0.95;;;0.70;;
24897;SDS011;12957;49.434;8.684;2022-09-09T17:12:31;2.53;;;0.80;;
24897;SDS011;12957;49.434;8.684;2022-09-09T17:14:57;2.70;;;0.90;;